Time,TemperatureF,DewpointF,PressureIn,WindDirection,WindDirectionDegrees,WindSpeedMPH,WindSpeedGustMPH,Humidity,HourlyPrecipIn,Conditions,Clouds,dailyrainin,SoftwareType,DateUTC
2013-06-22 00:00:00,74.3,70.2,29.96,SE,137,5.0,7.0,87,0.00,,,0.00,Wunderground v.1.15,2013-06-22 05:00:00,
2013-06-22 00:04:00,74.3,70.2,29.96,SE,132,5.0,7.0,87,0.00,,,0.00,Wunderground v.1.15,2013-06-22 05:04:00,
2013-06-22 00:08:00,74.3,70.2,29.95,SSE,162,5.0,7.0,87,0.00,,,0.00,Wunderground v.1.15,2013-06-22 05:08:00,
2013-06-22 00:10:00,74.3,70.2,29.94,ESE,113,5.0,10.0,87,0.00,,,0.00,Wunderground v.1.15,2013-06-22 05:10:00,
2013-06-22 00:14:00,74.4,70.3,29.94,SE,141,5.0,10.0,87,0.00,,,0.00,Wunderground v.1.15,2013-06-22 05:14:00,
2013-06-22 00:16:00,74.5,70.4,29.94,SSE,166,5.0,12.0,87,0.00,,,0.00,Wunderground v.1.15,2013-06-22 05:16:00,
2013-06-22 00:18:00,74.7,70.6,29.94,South,184,6.0,12.0,87,0.00,,,0.00,Wunderground v.1.15,2013-06-22 05:18:00,
2013-06-22 00:20:00,74.7,70.6,29.94,South,174,6.0,7.0,87,0.00,,,0.00,Wunderground v.1.15,2013-06-22 05:20:00,
2013-06-22 00:22:00,74.9,70.8,29.94,SSW,203,6.0,10.0,87,0.00,,,0.00,Wunderground v.1.15,2013-06-22 05:22:00,
2013-06-22 00:24:00,75.0,70.5,29.94,South,183,7.0,10.0,86,0.00,,,0.00,Wunderground v.1.15,2013-06-22 05:24:00,
2013-06-22 00:30:00,75.2,70.7,29.94,South,181,7.0,7.0,86,0.00,,,0.00,Wunderground v.1.15,2013-06-22 05:30:00,
2013-06-22 00:32:00,75.3,70.8,29.94,South,179,7.0,13.0,86,0.00,,,0.00,Wunderground v.1.15,2013-06-22 05:32:00,
2013-06-22 00:36:00,75.5,71.0,29.94,South,187,7.0,13.0,86,0.00,,,0.00,Wunderground v.1.15,2013-06-22 05:36:00,
2013-06-22 00:40:00,75.7,70.9,29.94,SSW,195,8.0,8.0,85,0.00,,,0.00,Wunderground v.1.15,2013-06-22 05:40:00,
2013-06-22 00:42:00,75.8,71.0,29.94,South,173,8.0,8.0,85,0.00,,,0.00,Wunderground v.1.15,2013-06-22 05:42:00,
2013-06-22 00:46:00,76.0,71.2,29.94,SSW,192,8.0,13.0,85,0.00,,,0.00,Wunderground v.1.15,2013-06-22 05:46:00,
2013-06-22 00:48:00,76.0,71.2,29.94,SSE,158,7.0,13.0,85,0.00,,,0.00,Wunderground v.1.15,2013-06-22 05:48:00,
2013-06-22 00:50:00,76.1,71.3,29.94,South,172,7.0,8.0,85,0.00,,,0.00,Wunderground v.1.15,2013-06-22 05:50:00,
2013-06-22 00:52:00,76.2,71.4,29.94,SSW,203,7.0,8.0,85,0.00,,,0.00,Wunderground v.1.15,2013-06-22 05:52:00,
2013-06-22 00:54:00,76.1,71.3,29.93,ESE,113,7.0,8.0,85,0.00,,,0.00,Wunderground v.1.15,2013-06-22 05:54:00,
2013-06-22 00:58:00,76.2,71.4,29.93,SSE,158,6.0,11.0,85,0.00,,,0.00,Wunderground v.1.15,2013-06-22 05:58:00,
2013-06-22 01:00:00,76.2,71.4,29.93,South,177,6.0,7.0,85,0.00,,,0.00,Wunderground v.1.15,2013-06-22 06:00:00,
2013-06-22 01:02:00,76.3,71.5,29.93,SSW,200,6.0,7.0,85,0.00,,,0.00,Wunderground v.1.15,2013-06-22 06:02:00,
2013-06-22 01:06:00,76.1,71.3,29.93,SSE,158,6.0,11.0,85,0.00,,,0.00,Wunderground v.1.15,2013-06-22 06:06:00,
2013-06-22 01:10:00,76.1,71.3,29.93,SSE,168,7.0,10.0,85,0.00,,,0.00,Wunderground v.1.15,2013-06-22 06:10:00,
2013-06-22 01:12:00,76.2,71.4,29.93,South,176,7.0,12.0,85,0.00,,,0.00,Wunderground v.1.15,2013-06-22 06:12:00,
2013-06-22 01:16:00,76.5,71.7,29.93,South,188,8.0,12.0,85,0.00,,,0.00,Wunderground v.1.15,2013-06-22 06:16:00,
2013-06-22 01:18:00,76.6,71.7,29.92,SE,128,8.0,12.0,85,0.00,,,0.00,Wunderground v.1.15,2013-06-22 06:18:00,
2013-06-22 01:22:00,76.6,71.7,29.92,SSE,150,8.0,8.0,85,0.00,,,0.00,Wunderground v.1.15,2013-06-22 06:22:00,
2013-06-22 01:24:00,76.5,71.7,29.92,South,180,8.0,8.0,85,0.00,,,0.00,Wunderground v.1.15,2013-06-22 06:24:00,
2013-06-22 01:26:00,76.5,71.7,29.92,SSE,166,8.0,8.0,85,0.00,,,0.00,Wunderground v.1.15,2013-06-22 06:26:00,
2013-06-22 01:30:00,76.5,71.7,29.92,SW,228,7.0,7.0,85,0.00,,,0.00,Wunderground v.1.15,2013-06-22 06:30:00,
2013-06-22 01:32:00,76.4,71.6,29.93,South,177,6.0,7.0,85,0.00,,,0.00,Wunderground v.1.15,2013-06-22 06:32:00,
2013-06-22 01:36:00,76.4,71.6,29.92,South,174,6.0,9.0,85,0.00,,,0.00,Wunderground v.1.15,2013-06-22 06:36:00,
2013-06-22 01:38:00,76.4,71.6,29.92,SSE,159,5.0,9.0,85,0.00,,,0.00,Wunderground v.1.15,2013-06-22 06:38:00,
2013-06-22 01:40:00,76.3,71.5,29.92,South,184,5.0,7.0,85,0.00,,,0.00,Wunderground v.1.15,2013-06-22 06:40:00,
2013-06-22 01:42:00,76.3,71.8,29.92,ENE,70,5.0,7.0,86,0.00,,,0.00,Wunderground v.1.15,2013-06-22 06:42:00,
2013-06-22 01:44:00,76.3,71.8,29.92,South,180,6.0,7.0,86,0.00,,,0.00,Wunderground v.1.15,2013-06-22 06:44:00,
2013-06-22 01:50:00,76.3,71.8,29.92,South,174,5.0,5.0,86,0.00,,,0.00,Wunderground v.1.15,2013-06-22 06:50:00,
2013-06-22 01:52:00,76.4,71.9,29.92,ESE,113,5.0,7.0,86,0.00,,,0.00,Wunderground v.1.15,2013-06-22 06:52:00,
2013-06-22 01:54:00,76.4,71.9,29.92,SSE,148,5.0,7.0,86,0.00,,,0.00,Wunderground v.1.15,2013-06-22 06:54:00,
2013-06-22 01:56:00,76.4,71.9,29.92,SE,143,4.0,7.0,86,0.00,,,0.00,Wunderground v.1.15,2013-06-22 06:56:00,
2013-06-22 02:00:00,76.4,71.9,29.93,SE,131,4.0,4.0,86,0.00,,,0.00,Wunderground v.1.15,2013-06-22 07:00:00,
2013-06-22 02:02:00,76.3,71.8,29.93,ESE,113,3.0,7.0,86,0.00,,,0.00,Wunderground v.1.15,2013-06-22 07:02:00,
2013-06-22 02:04:00,76.2,71.7,29.93,SSE,150,3.0,7.0,86,0.00,,,0.00,Wunderground v.1.15,2013-06-22 07:04:00,
2013-06-22 02:06:00,76.2,71.7,29.93,SSE,156,3.0,7.0,86,0.00,,,0.00,Wunderground v.1.15,2013-06-22 07:06:00,
2013-06-22 02:08:00,76.0,71.5,29.93,ESE,122,3.0,7.0,86,0.00,,,0.00,Wunderground v.1.15,2013-06-22 07:08:00,
2013-06-22 02:10:00,75.9,71.8,29.93,SE,131,3.0,7.0,87,0.00,,,0.00,Wunderground v.1.15,2013-06-22 07:10:00,
2013-06-22 02:14:00,75.6,71.5,29.93,SSE,147,3.0,7.0,87,0.00,,,0.00,Wunderground v.1.15,2013-06-22 07:14:00,
2013-06-22 02:16:00,75.5,71.7,29.94,SE,143,3.0,7.0,88,0.00,,,0.00,Wunderground v.1.15,2013-06-22 07:16:00,
2013-06-22 02:18:00,75.4,71.6,29.94,SE,124,3.0,7.0,88,0.00,,,0.00,Wunderground v.1.15,2013-06-22 07:18:00,
2013-06-22 02:20:00,75.3,71.5,29.94,SE,128,3.0,7.0,88,0.00,,,0.00,Wunderground v.1.15,2013-06-22 07:20:00,
2013-06-22 02:22:00,75.3,71.5,29.94,ESE,110,3.0,7.0,88,0.00,,,0.00,Wunderground v.1.15,2013-06-22 07:22:00,
2013-06-22 02:28:00,75.0,71.5,29.94,ESE,115,3.0,7.0,89,0.00,,,0.00,Wunderground v.1.15,2013-06-22 07:28:00,
2013-06-22 02:32:00,74.9,71.4,29.94,SE,127,4.0,7.0,89,0.00,,,0.00,Wunderground v.1.15,2013-06-22 07:32:00,
2013-06-22 02:34:00,74.9,71.4,29.94,ESE,113,4.0,7.0,89,0.00,,,0.00,Wunderground v.1.15,2013-06-22 07:34:00,
2013-06-22 02:36:00,74.8,71.3,29.94,ESE,122,4.0,7.0,89,0.00,,,0.00,Wunderground v.1.15,2013-06-22 07:36:00,
2013-06-22 02:40:00,74.7,71.2,29.94,SE,127,4.0,4.0,89,0.00,,,0.00,Wunderground v.1.15,2013-06-22 07:40:00,
2013-06-22 02:42:00,74.7,71.6,29.94,ESE,121,3.0,7.0,90,0.00,,,0.00,Wunderground v.1.15,2013-06-22 07:42:00,
2013-06-22 02:46:00,74.7,71.6,29.95,ESE,111,3.0,7.0,90,0.00,,,0.00,Wunderground v.1.15,2013-06-22 07:46:00,
2013-06-22 02:50:00,74.9,71.4,29.96,NNE,33,4.0,7.0,89,0.00,,,0.00,Wunderground v.1.15,2013-06-22 07:50:00,
2013-06-22 02:52:00,74.8,71.3,29.96,NNE,19,4.0,7.0,89,0.00,,,0.00,Wunderground v.1.15,2013-06-22 07:52:00,
2013-06-22 02:56:00,74.2,70.4,29.96,NNE,25,7.0,13.0,88,0.00,,,0.00,Wunderground v.1.15,2013-06-22 07:56:00,
2013-06-22 02:58:00,74.0,70.6,29.96,ENE,65,9.0,13.0,89,0.00,,,0.00,Wunderground v.1.15,2013-06-22 07:58:00,
2013-06-22 03:02:00,73.6,70.2,29.96,East,98,9.0,10.0,89,0.00,,,0.00,Wunderground v.1.15,2013-06-22 08:02:00,
2013-06-22 03:04:00,73.5,70.1,29.96,ENE,67,9.0,10.0,89,0.00,,,0.00,Wunderground v.1.15,2013-06-22 08:04:00,
2013-06-22 03:06:00,73.3,70.2,29.96,ENE,67,8.0,10.0,90,0.00,,,0.00,Wunderground v.1.15,2013-06-22 08:06:00,
2013-06-22 03:10:00,73.4,70.6,29.97,NE,46,7.0,13.0,91,0.00,,,0.00,Wunderground v.1.15,2013-06-22 08:10:00,
2013-06-22 03:12:00,73.7,70.3,29.97,ENE,59,8.0,17.0,89,0.00,,,0.00,Wunderground v.1.15,2013-06-22 08:12:00,
2013-06-22 03:16:00,73.3,66.4,29.98,NNE,25,10.0,17.0,79,0.00,,,0.00,Wunderground v.1.15,2013-06-22 08:16:00,
2013-06-22 03:18:00,72.9,65.6,29.98,NNE,31,11.0,17.0,78,0.00,,,0.00,Wunderground v.1.15,2013-06-22 08:18:00,
2013-06-22 03:20:00,72.7,65.1,29.98,North,1,12.0,12.0,77,0.00,,,0.00,Wunderground v.1.15,2013-06-22 08:20:00,
2013-06-22 03:22:00,72.5,65.2,29.98,NNE,12,11.0,12.0,78,0.00,,,0.00,Wunderground v.1.15,2013-06-22 08:22:00,
2013-06-22 03:26:00,72.3,65.4,29.96,NE,39,10.0,14.0,79,0.00,,,0.00,Wunderground v.1.15,2013-06-22 08:26:00,
2013-06-22 03:28:00,72.8,67.3,29.97,East,79,10.0,14.0,83,0.00,,,0.00,Wunderground v.1.15,2013-06-22 08:28:00,
2013-06-22 03:30:00,73.7,67.9,29.97,ENE,77,9.0,12.0,82,0.00,,,0.00,Wunderground v.1.15,2013-06-22 08:30:00,
2013-06-22 03:34:00,74.5,68.6,29.97,East,90,9.0,12.0,82,0.00,,,0.00,Wunderground v.1.15,2013-06-22 08:34:00,
2013-06-22 03:36:00,74.6,66.5,29.98,ESE,111,9.0,12.0,76,0.00,,,0.00,Wunderground v.1.15,2013-06-22 08:36:00,
2013-06-22 03:40:00,73.5,65.5,29.98,East,81,10.0,12.0,76,0.00,,,0.00,Wunderground v.1.15,2013-06-22 08:40:00,
2013-06-22 03:44:00,72.5,65.2,29.99,East,79,12.0,18.0,78,0.00,,,0.00,Wunderground v.1.15,2013-06-22 08:44:00,
2013-06-22 03:46:00,72.0,65.1,29.97,NE,39,14.0,18.0,79,0.00,,,0.00,Wunderground v.1.15,2013-06-22 08:46:00,
2013-06-22 03:48:00,71.5,65.0,29.96,NNE,30,15.0,18.0,80,0.00,,,0.00,Wunderground v.1.15,2013-06-22 08:48:00,
2013-06-22 03:54:00,70.6,65.2,29.99,East,101,16.0,21.0,83,0.00,,,0.00,Wunderground v.1.15,2013-06-22 08:54:00,
2013-06-22 03:56:00,70.4,65.3,30.00,East,80,15.0,21.0,84,0.00,,,0.00,Wunderground v.1.15,2013-06-22 08:56:00,
2013-06-22 03:58:00,70.2,65.5,30.00,East,84,13.0,21.0,85,0.00,,,0.00,Wunderground v.1.15,2013-06-22 08:58:00,
2013-06-22 04:00:00,70.1,65.4,30.00,ENE,60,12.0,12.0,85,0.00,,,0.00,Wunderground v.1.15,2013-06-22 09:00:00,
2013-06-22 04:02:00,69.9,65.2,29.98,NNE,18,11.0,19.0,85,0.00,,,0.00,Wunderground v.1.15,2013-06-22 09:02:00,
2013-06-22 04:06:00,70.0,65.3,29.95,East,92,17.0,26.0,85,0.00,,,0.00,Wunderground v.1.15,2013-06-22 09:06:00,
2013-06-22 04:08:00,70.0,64.9,29.96,NNE,25,19.0,26.0,84,0.00,,,0.00,Wunderground v.1.15,2013-06-22 09:08:00,
2013-06-22 04:10:00,70.1,65.4,29.96,ENE,73,21.0,21.0,85,0.00,,,0.00,Wunderground v.1.15,2013-06-22 09:10:00,
2013-06-22 04:16:00,70.0,65.3,29.99,East,79,17.0,21.0,85,0.00,,,0.00,Wunderground v.1.15,2013-06-22 09:16:00,
2013-06-22 04:18:00,69.9,65.5,29.99,ENE,68,13.0,21.0,86,0.00,,,0.00,Wunderground v.1.15,2013-06-22 09:18:00,
2013-06-22 04:22:00,69.8,65.4,29.99,NNE,23,11.0,14.0,86,0.00,,,0.00,Wunderground v.1.15,2013-06-22 09:22:00,
2013-06-22 04:24:00,69.8,65.4,29.98,NE,37,11.0,14.0,86,0.00,,,0.00,Wunderground v.1.15,2013-06-22 09:24:00,
2013-06-22 04:26:00,69.8,65.8,29.98,ENE,59,11.0,14.0,87,0.00,,,0.00,Wunderground v.1.15,2013-06-22 09:26:00,
2013-06-22 04:30:00,69.8,65.8,29.98,NE,53,11.0,13.0,87,0.00,,,0.00,Wunderground v.1.15,2013-06-22 09:30:00,
2013-06-22 04:32:00,69.8,65.8,29.98,NE,53,11.0,13.0,87,0.00,,,0.00,Wunderground v.1.15,2013-06-22 09:32:00,
2013-06-22 04:34:00,69.9,65.9,29.99,East,90,11.0,13.0,87,0.00,,,0.00,Wunderground v.1.15,2013-06-22 09:34:00,
2013-06-22 04:38:00,70.0,66.0,30.00,NNW,332,7.0,13.0,87,0.00,,,0.00,Wunderground v.1.15,2013-06-22 09:38:00,
2013-06-22 04:40:00,70.0,66.0,30.00,NNW,340,6.0,6.0,87,0.00,,,0.00,Wunderground v.1.15,2013-06-22 09:40:00,
2013-06-22 04:42:00,69.9,65.9,30.00,NW,323,4.0,7.0,87,0.00,,,0.00,Wunderground v.1.15,2013-06-22 09:42:00,
2013-06-22 04:46:00,69.5,66.1,30.00,NNW,347,3.0,7.0,89,0.00,,,0.00,Wunderground v.1.15,2013-06-22 09:46:00,
2013-06-22 04:48:00,69.1,66.0,30.00,North,6,5.0,9.0,90,0.00,,,0.00,Wunderground v.1.15,2013-06-22 09:48:00,
2013-06-22 04:50:00,68.9,65.8,30.00,North,358,6.0,15.0,90,0.00,,,0.00,Wunderground v.1.15,2013-06-22 09:50:00,
2013-06-22 04:52:00,68.6,66.2,29.99,NNW,338,8.0,15.0,92,0.00,,,0.00,Wunderground v.1.15,2013-06-22 09:52:00,
2013-06-22 04:54:00,68.3,65.9,30.01,NNW,337,10.0,15.0,92,0.00,,,0.00,Wunderground v.1.15,2013-06-22 09:54:00,
2013-06-22 04:56:00,68.1,66.0,30.02,NW,308,11.0,15.0,93,0.00,,,0.00,Wunderground v.1.15,2013-06-22 09:56:00,
2013-06-22 04:58:00,67.9,66.1,30.02,NW,321,12.0,17.0,94,0.00,,,0.00,Wunderground v.1.15,2013-06-22 09:58:00,
2013-06-22 05:00:00,67.6,65.8,30.02,NNW,335,13.0,14.0,94,0.00,,,0.00,Wunderground v.1.15,2013-06-22 10:00:00,
2013-06-22 05:02:00,67.4,65.6,30.01,NNW,328,13.0,15.0,94,0.00,,,0.00,Wunderground v.1.15,2013-06-22 10:02:00,
2013-06-22 05:04:00,67.3,65.8,30.01,North,1,14.0,15.0,95,1.59,,,0.04,Wunderground v.1.15,2013-06-22 10:04:00,
2013-06-22 05:10:00,66.8,65.6,30.00,North,356,15.0,15.0,96,0.57,,,0.09,Wunderground v.1.15,2013-06-22 10:10:00,
2013-06-22 05:14:00,66.7,65.8,30.01,North,359,14.0,17.0,97,0.50,,,0.13,Wunderground v.1.15,2013-06-22 10:14:00,
2013-06-22 05:16:00,66.7,65.8,30.02,NNW,330,13.0,17.0,97,0.30,,,0.14,Wunderground v.1.15,2013-06-22 10:16:00,
2013-06-22 05:18:00,66.7,65.8,30.03,North,4,13.0,17.0,97,0.17,,,0.14,Wunderground v.1.15,2013-06-22 10:18:00,
2013-06-22 05:24:00,66.7,65.8,30.03,NNW,339,13.0,16.0,97,0.07,,,0.14,Wunderground v.1.15,2013-06-22 10:24:00,
2013-06-22 05:30:00,66.7,66.1,30.04,North,357,14.0,14.0,98,0.06,,,0.15,Wunderground v.1.15,2013-06-22 10:30:00,
2013-06-22 05:32:00,66.7,66.1,30.04,North,8,13.0,15.0,98,0.55,,,0.17,Wunderground v.1.15,2013-06-22 10:32:00,
2013-06-22 05:38:00,66.8,66.2,30.04,North,1,12.0,16.0,98,0.21,,,0.19,Wunderground v.1.15,2013-06-22 10:38:00,
2013-06-22 05:40:00,66.9,66.3,30.03,NNE,18,12.0,17.0,98,0.14,,,0.19,Wunderground v.1.15,2013-06-22 10:40:00,
2013-06-22 05:42:00,66.9,66.3,30.03,North,4,14.0,17.0,98,0.09,,,0.19,Wunderground v.1.15,2013-06-22 10:42:00,
2013-06-22 05:46:00,66.9,66.3,30.02,North,352,14.0,18.0,98,0.19,,,0.20,Wunderground v.1.15,2013-06-22 10:46:00,
2013-06-22 05:48:00,67.0,66.4,30.03,NNE,27,15.0,18.0,98,0.19,,,0.21,Wunderground v.1.15,2013-06-22 10:48:00,
2013-06-22 05:52:00,67.1,66.5,30.02,NNE,27,14.0,15.0,98,0.10,,,0.21,Wunderground v.1.15,2013-06-22 10:52:00,
2013-06-22 05:56:00,67.2,66.6,30.03,North,357,14.0,15.0,98,0.08,,,0.22,Wunderground v.1.15,2013-06-22 10:56:00,
2013-06-22 05:58:00,67.2,66.6,30.03,NNE,15,13.0,15.0,98,0.17,,,0.23,Wunderground v.1.15,2013-06-22 10:58:00,
2013-06-22 06:00:00,67.2,66.6,30.03,NNE,26,12.0,12.0,98,0.25,,,0.24,Wunderground v.1.15,2013-06-22 11:00:00,
2013-06-22 06:02:00,67.2,66.6,30.03,NNE,20,12.0,12.0,98,0.23,,,0.24,Wunderground v.1.15,2013-06-22 11:02:00,
2013-06-22 06:06:00,67.3,66.7,30.03,NE,43,11.0,12.0,98,0.09,,,0.24,Wunderground v.1.15,2013-06-22 11:06:00,
2013-06-22 06:08:00,67.3,66.7,30.04,NNW,345,10.0,12.0,98,0.07,,,0.24,Wunderground v.1.15,2013-06-22 11:08:00,
2013-06-22 06:12:00,67.3,66.7,30.03,North,355,10.0,10.0,98,0.05,,,0.24,Wunderground v.1.15,2013-06-22 11:12:00,
2013-06-22 06:14:00,67.3,66.7,30.03,NNE,29,10.0,12.0,98,0.04,,,0.24,Wunderground v.1.15,2013-06-22 11:14:00,
2013-06-22 06:16:00,67.4,66.8,30.03,NNE,15,10.0,12.0,98,0.04,,,0.24,Wunderground v.1.15,2013-06-22 11:16:00,
2013-06-22 06:18:00,67.4,66.8,30.03,NNE,20,10.0,12.0,98,0.00,,,0.24,Wunderground v.1.15,2013-06-22 11:18:00,
2013-06-22 06:20:00,67.4,66.8,30.03,North,11,10.0,11.0,98,0.00,,,0.24,Wunderground v.1.15,2013-06-22 11:20:00,
2013-06-22 06:22:00,67.4,66.8,30.03,NNE,23,11.0,11.0,98,0.00,,,0.24,Wunderground v.1.15,2013-06-22 11:22:00,
2013-06-22 06:24:00,67.5,66.9,30.03,NNE,30,10.0,11.0,98,0.00,,,0.24,Wunderground v.1.15,2013-06-22 11:24:00,
2013-06-22 06:28:00,67.6,67.0,30.03,NE,34,10.0,11.0,98,0.00,,,0.24,Wunderground v.1.15,2013-06-22 11:28:00,
2013-06-22 06:32:00,67.7,67.1,30.04,NNE,26,9.0,11.0,98,0.00,,,0.24,Wunderground v.1.15,2013-06-22 11:32:00,
2013-06-22 06:34:00,67.7,67.1,30.04,NE,34,9.0,11.0,98,0.00,,,0.24,Wunderground v.1.15,2013-06-22 11:34:00,
2013-06-22 06:40:00,67.7,67.1,30.04,North,4,8.0,8.0,98,0.00,,,0.24,Wunderground v.1.15,2013-06-22 11:40:00,
2013-06-22 06:42:00,67.7,67.1,30.04,North,1,8.0,8.0,98,0.00,,,0.24,Wunderground v.1.15,2013-06-22 11:42:00,
2013-06-22 06:44:00,67.7,67.1,30.04,NNE,22,7.0,10.0,98,0.00,,,0.24,Wunderground v.1.15,2013-06-22 11:44:00,
2013-06-22 06:48:00,67.8,67.2,30.03,NNE,20,8.0,10.0,98,0.00,,,0.24,Wunderground v.1.15,2013-06-22 11:48:00,
2013-06-22 06:50:00,67.8,67.2,30.03,NNE,15,8.0,8.0,98,0.00,,,0.24,Wunderground v.1.15,2013-06-22 11:50:00,
2013-06-22 06:52:00,67.8,67.2,30.03,NE,48,8.0,8.0,98,0.00,,,0.24,Wunderground v.1.15,2013-06-22 11:52:00,
2013-06-22 06:54:00,67.8,66.9,30.03,North,4,8.0,8.0,97,0.00,,,0.24,Wunderground v.1.15,2013-06-22 11:54:00,
2013-06-22 06:58:00,67.9,67.0,30.04,NNE,15,7.0,8.0,97,0.00,,,0.24,Wunderground v.1.15,2013-06-22 11:58:00,
2013-06-22 07:00:00,67.9,67.0,30.03,NNE,22,7.0,7.0,97,0.00,,,0.24,Wunderground v.1.15,2013-06-22 12:00:00,
2013-06-22 07:02:00,68.0,67.1,30.03,NNE,12,7.0,7.0,97,0.00,,,0.24,Wunderground v.1.15,2013-06-22 12:02:00,
2013-06-22 07:06:00,68.1,67.2,30.02,NNE,32,7.0,8.0,97,0.00,,,0.24,Wunderground v.1.15,2013-06-22 12:06:00,
2013-06-22 07:08:00,68.1,67.2,30.02,ENE,75,7.0,8.0,97,0.00,,,0.24,Wunderground v.1.15,2013-06-22 12:08:00,
2013-06-22 07:10:00,68.2,67.3,30.01,NE,53,7.0,7.0,97,0.00,,,0.24,Wunderground v.1.15,2013-06-22 12:10:00,
2013-06-22 07:12:00,68.2,67.3,30.01,ENE,58,7.0,7.0,97,0.00,,,0.24,Wunderground v.1.15,2013-06-22 12:12:00,
2013-06-22 07:14:00,68.3,67.1,30.00,NE,54,7.0,10.0,96,0.00,,,0.24,Wunderground v.1.15,2013-06-22 12:14:00,
2013-06-22 07:16:00,68.3,67.1,30.00,East,80,7.0,10.0,96,0.00,,,0.24,Wunderground v.1.15,2013-06-22 12:16:00,
2013-06-22 07:18:00,68.4,67.2,30.00,ESE,105,8.0,10.0,96,0.00,,,0.24,Wunderground v.1.15,2013-06-22 12:18:00,
2013-06-22 07:20:00,68.5,67.3,30.00,East,98,9.0,9.0,96,0.00,,,0.24,Wunderground v.1.15,2013-06-22 12:20:00,
2013-06-22 07:22:00,68.5,67.3,30.00,East,91,9.0,9.0,96,0.00,,,0.24,Wunderground v.1.15,2013-06-22 12:22:00,
2013-06-22 07:24:00,68.5,67.3,30.00,East,85,10.0,11.0,96,0.00,,,0.24,Wunderground v.1.15,2013-06-22 12:24:00,
2013-06-22 07:26:00,68.6,67.4,29.99,ESE,105,10.0,11.0,96,0.00,,,0.24,Wunderground v.1.15,2013-06-22 12:26:00,
2013-06-22 07:32:00,68.7,67.5,29.99,East,96,10.0,11.0,96,0.00,,,0.24,Wunderground v.1.15,2013-06-22 12:32:00,
2013-06-22 07:36:00,68.7,67.5,29.99,East,87,9.0,11.0,96,0.00,,,0.24,Wunderground v.1.15,2013-06-22 12:36:00,
2013-06-22 07:40:00,68.7,67.2,29.98,East,80,11.0,15.0,95,0.00,,,0.24,Wunderground v.1.15,2013-06-22 12:40:00,
2013-06-22 07:42:00,68.8,67.3,29.99,East,89,11.0,15.0,95,0.00,,,0.24,Wunderground v.1.15,2013-06-22 12:42:00,
2013-06-22 07:46:00,68.8,67.3,29.98,East,91,12.0,16.0,95,0.00,,,0.24,Wunderground v.1.15,2013-06-22 12:46:00,
2013-06-22 07:48:00,69.0,67.2,29.99,East,95,13.0,16.0,94,0.00,,,0.24,Wunderground v.1.15,2013-06-22 12:48:00,
2013-06-22 07:50:00,69.1,67.3,29.99,ESE,105,13.0,13.0,94,0.00,,,0.24,Wunderground v.1.15,2013-06-22 12:50:00,
2013-06-22 07:54:00,69.3,67.5,29.99,ESE,102,13.0,13.0,94,0.00,,,0.24,Wunderground v.1.15,2013-06-22 12:54:00,
2013-06-22 07:56:00,69.5,67.7,30.00,ENE,63,13.0,13.0,94,0.00,,,0.24,Wunderground v.1.15,2013-06-22 12:56:00,
2013-06-22 07:58:00,69.6,67.5,30.00,East,87,12.0,14.0,93,0.00,,,0.24,Wunderground v.1.15,2013-06-22 12:58:00,
2013-06-22 08:00:00,69.7,67.6,30.01,ENE,74,12.0,12.0,93,0.00,,,0.24,Wunderground v.1.15,2013-06-22 13:00:00,
2013-06-22 08:02:00,69.8,67.7,30.01,East,94,12.0,12.0,93,0.00,,,0.24,Wunderground v.1.15,2013-06-22 13:02:00,
2013-06-22 08:04:00,69.9,67.5,30.01,East,87,12.0,12.0,92,0.00,,,0.24,Wunderground v.1.15,2013-06-22 13:04:00,
2013-06-22 08:06:00,70.1,68.0,30.01,ESE,119,12.0,12.0,93,0.00,,,0.24,Wunderground v.1.15,2013-06-22 13:06:00,
2013-06-22 08:08:00,70.3,67.9,30.01,East,91,12.0,12.0,92,0.00,,,0.24,Wunderground v.1.15,2013-06-22 13:08:00,
2013-06-22 08:10:00,70.4,68.0,30.01,East,96,12.0,12.0,92,0.00,,,0.24,Wunderground v.1.15,2013-06-22 13:10:00,
2013-06-22 08:12:00,70.6,68.5,30.02,East,84,11.0,12.0,93,0.00,,,0.24,Wunderground v.1.15,2013-06-22 13:12:00,
2013-06-22 08:14:00,70.7,68.3,30.02,NE,47,11.0,12.0,92,0.00,,,0.24,Wunderground v.1.15,2013-06-22 13:14:00,
2013-06-22 08:16:00,70.9,68.1,30.03,East,79,11.0,12.0,91,0.00,,,0.24,Wunderground v.1.15,2013-06-22 13:16:00,
2013-06-22 08:20:00,71.1,68.0,30.04,East,90,9.0,12.0,90,0.00,,,0.24,Wunderground v.1.15,2013-06-22 13:20:00,
2013-06-22 08:22:00,71.3,68.2,30.04,NE,49,9.0,12.0,90,0.00,,,0.24,Wunderground v.1.15,2013-06-22 13:22:00,
2013-06-22 08:24:00,71.5,68.4,30.04,ENE,75,9.0,12.0,90,0.00,,,0.24,Wunderground v.1.15,2013-06-22 13:24:00,
2013-06-22 08:26:00,71.6,68.2,30.04,NE,54,8.0,12.0,89,0.00,,,0.24,Wunderground v.1.15,2013-06-22 13:26:00,
2013-06-22 08:28:00,71.7,68.0,30.04,ENE,78,8.0,12.0,88,0.00,,,0.24,Wunderground v.1.15,2013-06-22 13:28:00,
2013-06-22 08:30:00,71.7,68.0,30.04,ENE,74,8.0,9.0,88,0.00,,,0.24,Wunderground v.1.15,2013-06-22 13:30:00,
2013-06-22 08:34:00,71.9,68.5,30.05,ENE,69,8.0,9.0,89,0.00,,,0.24,Wunderground v.1.15,2013-06-22 13:34:00,
2013-06-22 08:38:00,72.3,68.5,30.05,NNE,19,7.0,9.0,88,0.00,,,0.24,Wunderground v.1.15,2013-06-22 13:38:00,
2013-06-22 08:40:00,72.5,69.1,30.05,ENE,64,6.0,8.0,89,0.00,,,0.24,Wunderground v.1.15,2013-06-22 13:40:00,
2013-06-22 08:44:00,72.6,68.8,30.04,ENE,57,6.0,9.0,88,0.00,,,0.24,Wunderground v.1.15,2013-06-22 13:44:00,
2013-06-22 08:46:00,72.6,68.8,30.04,ENE,64,7.0,9.0,88,0.00,,,0.24,Wunderground v.1.15,2013-06-22 13:46:00,
2013-06-22 08:48:00,72.7,68.9,30.04,East,95,7.0,9.0,88,0.00,,,0.24,Wunderground v.1.15,2013-06-22 13:48:00,
2013-06-22 08:52:00,73.0,68.9,30.04,ESE,110,8.0,11.0,87,0.00,,,0.24,Wunderground v.1.15,2013-06-22 13:52:00,
2013-06-22 08:54:00,73.2,69.1,30.04,East,99,8.0,11.0,87,0.00,,,0.24,Wunderground v.1.15,2013-06-22 13:54:00,
2013-06-22 08:58:00,73.5,69.1,30.03,ESE,110,9.0,12.0,86,0.00,,,0.24,Wunderground v.1.15,2013-06-22 13:58:00,
2013-06-22 09:00:00,73.5,69.1,30.03,ESE,110,9.0,9.0,86,0.00,,,0.24,Wunderground v.1.15,2013-06-22 14:00:00,
2013-06-22 09:02:00,73.5,69.1,30.03,ESE,112,9.0,9.0,86,0.00,,,0.24,Wunderground v.1.15,2013-06-22 14:02:00,
2013-06-22 09:04:00,73.6,69.2,30.03,ESE,103,9.0,11.0,86,0.00,,,0.24,Wunderground v.1.15,2013-06-22 14:04:00,
2013-06-22 09:06:00,73.7,69.2,30.02,ESE,109,10.0,11.0,86,0.00,,,0.24,Wunderground v.1.15,2013-06-22 14:06:00,
2013-06-22 09:08:00,74.0,69.5,30.03,East,98,9.0,11.0,86,0.00,,,0.24,Wunderground v.1.15,2013-06-22 14:08:00,
2013-06-22 09:10:00,74.1,69.6,30.03,East,91,9.0,9.0,86,0.00,,,0.24,Wunderground v.1.15,2013-06-22 14:10:00,
2013-06-22 09:12:00,74.3,69.5,30.03,SE,126,8.0,9.0,85,0.00,,,0.24,Wunderground v.1.15,2013-06-22 14:12:00,
2013-06-22 09:14:00,74.5,69.7,30.03,East,98,8.0,9.0,85,0.00,,,0.24,Wunderground v.1.15,2013-06-22 14:14:00,
2013-06-22 09:20:00,75.2,69.7,30.03,SE,131,8.0,10.0,83,0.00,,,0.24,Wunderground v.1.15,2013-06-22 14:20:00,
2013-06-22 09:22:00,75.5,70.0,30.03,ESE,121,9.0,14.0,83,0.00,,,0.24,Wunderground v.1.15,2013-06-22 14:22:00,
2013-06-22 09:24:00,75.6,69.7,30.03,SE,124,9.0,14.0,82,0.00,,,0.24,Wunderground v.1.15,2013-06-22 14:24:00,
2013-06-22 09:26:00,75.8,70.6,30.03,ESE,120,9.0,14.0,84,0.00,,,0.24,Wunderground v.1.15,2013-06-22 14:26:00,
2013-06-22 09:30:00,75.7,70.2,30.03,ESE,115,9.0,9.0,83,0.00,,,0.24,Wunderground v.1.15,2013-06-22 14:30:00,
2013-06-22 09:36:00,75.8,69.6,30.04,East,98,7.0,9.0,81,0.00,,,0.24,Wunderground v.1.15,2013-06-22 14:36:00,
2013-06-22 09:38:00,75.9,70.0,30.04,SE,128,6.0,9.0,82,0.00,,,0.24,Wunderground v.1.15,2013-06-22 14:38:00,
2013-06-22 09:42:00,76.2,70.3,30.04,ESE,108,5.0,7.0,82,0.00,,,0.24,Wunderground v.1.15,2013-06-22 14:42:00,
2013-06-22 09:44:00,76.4,70.9,30.04,SE,140,5.0,7.0,83,0.00,,,0.24,Wunderground v.1.15,2013-06-22 14:44:00,
2013-06-22 09:48:00,76.6,70.7,30.04,ESE,122,4.0,7.0,82,0.00,,,0.24,Wunderground v.1.15,2013-06-22 14:48:00,
2013-06-22 09:50:00,76.5,70.2,30.04,SE,137,4.0,7.0,81,0.00,,,0.24,Wunderground v.1.15,2013-06-22 14:50:00,
2013-06-22 09:52:00,76.4,70.5,30.05,East,92,4.0,7.0,82,0.00,,,0.24,Wunderground v.1.15,2013-06-22 14:52:00,
2013-06-22 09:54:00,76.4,70.9,30.07,NNW,345,4.0,7.0,83,0.00,,,0.24,Wunderground v.1.15,2013-06-22 14:54:00,
2013-06-22 09:58:00,76.2,70.7,30.09,WNW,298,6.0,13.0,83,0.00,,,0.24,Wunderground v.1.15,2013-06-22 14:58:00,
2013-06-22 10:02:00,75.5,70.0,30.09,NW,316,8.0,14.0,83,0.00,,,0.24,Wunderground v.1.15,2013-06-22 15:02:00,
2013-06-22 10:04:00,75.1,68.5,30.09,NNW,330,11.0,14.0,80,0.00,,,0.24,Wunderground v.1.15,2013-06-22 15:04:00,
2013-06-22 10:06:00,75.0,68.4,30.09,North,349,12.0,14.0,80,0.00,,,0.24,Wunderground v.1.15,2013-06-22 15:06:00,
2013-06-22 10:08:00,75.0,68.4,30.09,NNW,337,12.0,14.0,80,0.00,,,0.24,Wunderground v.1.15,2013-06-22 15:08:00,
2013-06-22 10:10:00,75.3,69.4,30.09,NW,319,11.0,14.0,82,0.00,,,0.24,Wunderground v.1.15,2013-06-22 15:10:00,
2013-06-22 10:12:00,75.6,68.6,30.08,NNW,330,11.0,14.0,79,0.00,,,0.24,Wunderground v.1.15,2013-06-22 15:12:00,
2013-06-22 10:14:00,75.7,68.7,30.08,NNW,330,11.0,14.0,79,0.00,,,0.24,Wunderground v.1.15,2013-06-22 15:14:00,
2013-06-22 10:18:00,76.0,69.0,30.06,North,353,9.0,14.0,79,0.00,,,0.24,Wunderground v.1.15,2013-06-22 15:18:00,
2013-06-22 10:20:00,76.2,68.5,30.05,NE,40,8.0,8.0,77,0.00,,,0.24,Wunderground v.1.15,2013-06-22 15:20:00,
2013-06-22 10:22:00,76.6,67.7,30.04,North,8,8.0,8.0,74,0.00,,,0.24,Wunderground v.1.15,2013-06-22 15:22:00,
2013-06-22 10:28:00,77.3,69.1,30.02,ENE,66,7.0,11.0,76,0.00,,,0.24,Wunderground v.1.15,2013-06-22 15:28:00,
2013-06-22 10:32:00,77.1,68.6,30.03,NE,46,7.0,9.0,75,0.00,,,0.24,Wunderground v.1.15,2013-06-22 15:32:00,
2013-06-22 10:34:00,77.1,68.9,30.03,NE,51,7.0,9.0,76,0.00,,,0.24,Wunderground v.1.15,2013-06-22 15:34:00,
2013-06-22 10:36:00,77.0,68.5,30.02,ENE,68,6.0,9.0,75,0.00,,,0.24,Wunderground v.1.15,2013-06-22 15:36:00,
2013-06-22 10:38:00,77.0,68.5,30.02,East,101,7.0,9.0,75,0.00,,,0.24,Wunderground v.1.15,2013-06-22 15:38:00,
2013-06-22 10:40:00,77.0,70.0,30.02,East,87,6.0,8.0,79,0.00,,,0.24,Wunderground v.1.15,2013-06-22 15:40:00,
2013-06-22 10:42:00,76.9,68.0,30.01,ESE,119,6.0,8.0,74,0.00,,,0.24,Wunderground v.1.15,2013-06-22 15:42:00,
2013-06-22 10:44:00,77.0,69.2,30.01,ESE,105,7.0,8.0,77,0.00,,,0.24,Wunderground v.1.15,2013-06-22 15:44:00,
2013-06-22 10:46:00,77.0,69.6,30.01,East,94,7.0,8.0,78,0.00,,,0.24,Wunderground v.1.15,2013-06-22 15:46:00,
2013-06-22 10:48:00,77.0,69.6,30.01,ENE,77,7.0,8.0,78,0.00,,,0.24,Wunderground v.1.15,2013-06-22 15:48:00,
2013-06-22 10:50:00,77.0,68.9,30.01,East,98,7.0,7.0,76,0.00,,,0.24,Wunderground v.1.15,2013-06-22 15:50:00,
2013-06-22 10:54:00,77.3,69.1,30.01,ESE,117,6.0,8.0,76,0.00,,,0.24,Wunderground v.1.15,2013-06-22 15:54:00,
2013-06-22 10:56:00,77.4,68.9,30.01,ESE,102,6.0,8.0,75,0.00,,,0.24,Wunderground v.1.15,2013-06-22 15:56:00,
2013-06-22 10:58:00,77.4,68.5,30.00,East,95,7.0,9.0,74,0.00,,,0.24,Wunderground v.1.15,2013-06-22 15:58:00,
2013-06-22 11:00:00,77.4,69.2,30.00,ESE,115,7.0,8.0,76,0.00,,,0.24,Wunderground v.1.15,2013-06-22 16:00:00,
2013-06-22 11:04:00,77.5,69.7,30.00,East,87,9.0,11.0,77,0.00,,,0.24,Wunderground v.1.15,2013-06-22 16:04:00,
2013-06-22 11:06:00,77.5,69.7,29.99,ESE,115,9.0,11.0,77,0.00,,,0.24,Wunderground v.1.15,2013-06-22 16:06:00,
2013-06-22 11:08:00,77.5,70.1,30.00,East,95,9.0,11.0,78,0.00,,,0.24,Wunderground v.1.15,2013-06-22 16:08:00,
2013-06-22 11:12:00,77.7,70.7,30.00,East,96,9.0,9.0,79,0.00,,,0.24,Wunderground v.1.15,2013-06-22 16:12:00,
2013-06-22 11:16:00,77.9,70.1,30.00,SE,141,8.0,9.0,77,0.00,,,0.24,Wunderground v.1.15,2013-06-22 16:16:00,
2013-06-22 11:18:00,78.1,71.1,30.00,ESE,115,7.0,9.0,79,0.00,,,0.24,Wunderground v.1.15,2013-06-22 16:18:00,
2013-06-22 11:22:00,78.4,69.8,30.00,ESE,117,7.0,9.0,75,0.00,,,0.24,Wunderground v.1.15,2013-06-22 16:22:00,
2013-06-22 11:24:00,78.4,70.2,30.01,East,89,7.0,9.0,76,0.00,,,0.24,Wunderground v.1.15,2013-06-22 16:24:00,
2013-06-22 11:26:00,78.6,71.2,30.01,East,97,6.0,9.0,78,0.00,,,0.24,Wunderground v.1.15,2013-06-22 16:26:00,
2013-06-22 11:28:00,78.7,70.5,30.01,SE,127,6.0,9.0,76,0.00,,,0.24,Wunderground v.1.15,2013-06-22 16:28:00,
2013-06-22 11:30:00,78.7,70.5,30.01,ESE,109,6.0,7.0,76,0.00,,,0.24,Wunderground v.1.15,2013-06-22 16:30:00,
2013-06-22 11:32:00,78.8,70.6,30.01,ESE,119,6.0,7.0,76,0.00,,,0.24,Wunderground v.1.15,2013-06-22 16:32:00,
2013-06-22 11:36:00,78.8,70.2,30.01,SE,128,5.0,7.0,75,0.00,,,0.24,Wunderground v.1.15,2013-06-22 16:36:00,
2013-06-22 11:42:00,79.2,71.4,30.01,South,170,4.0,7.0,77,0.00,,,0.24,Wunderground v.1.15,2013-06-22 16:42:00,
2013-06-22 11:44:00,79.3,71.1,30.01,SSE,157,4.0,7.0,76,0.00,,,0.24,Wunderground v.1.15,2013-06-22 16:44:00,
2013-06-22 11:48:00,79.8,71.9,30.02,ESE,105,3.0,7.0,77,0.00,,,0.24,Wunderground v.1.15,2013-06-22 16:48:00,
2013-06-22 11:50:00,80.1,72.6,30.02,ESE,115,3.0,7.0,78,0.00,,,0.24,Wunderground v.1.15,2013-06-22 16:50:00,
2013-06-22 11:52:00,80.4,72.1,30.02,SSW,195,2.0,7.0,76,0.00,,,0.24,Wunderground v.1.15,2013-06-22 16:52:00,
2013-06-22 11:54:00,80.8,72.1,30.01,SSE,155,2.0,7.0,75,0.00,,,0.24,Wunderground v.1.15,2013-06-22 16:54:00,
2013-06-22 11:58:00,81.2,71.3,30.01,SSW,205,3.0,8.0,72,0.00,,,0.24,Wunderground v.1.15,2013-06-22 16:58:00,
2013-06-22 12:00:00,81.3,72.6,30.01,SE,125,4.0,7.0,75,0.00,,,0.24,Wunderground v.1.15,2013-06-22 17:00:00,
2013-06-22 12:02:00,81.6,73.7,30.01,SE,128,4.0,7.0,77,0.00,,,0.24,Wunderground v.1.15,2013-06-22 17:02:00,
2013-06-22 12:04:00,82.0,73.3,30.01,NE,56,4.0,7.0,75,0.00,,,0.24,Wunderground v.1.15,2013-06-22 17:04:00,
2013-06-22 12:06:00,82.3,72.8,30.01,South,190,5.0,7.0,73,0.00,,,0.24,Wunderground v.1.15,2013-06-22 17:06:00,
2013-06-22 12:10:00,82.8,73.3,30.01,SE,127,4.0,7.0,73,0.00,,,0.24,Wunderground v.1.15,2013-06-22 17:10:00,
2013-06-22 12:12:00,82.7,73.6,30.01,SE,139,4.0,7.0,74,0.00,,,0.24,Wunderground v.1.15,2013-06-22 17:12:00,
2013-06-22 12:14:00,82.7,73.6,30.00,ESE,105,5.0,9.0,74,0.00,,,0.24,Wunderground v.1.15,2013-06-22 17:14:00,
2013-06-22 12:20:00,83.2,73.6,30.00,ESE,109,5.0,7.0,73,0.00,,,0.24,Wunderground v.1.15,2013-06-22 17:20:00,
2013-06-22 12:22:00,83.3,74.1,30.00,South,175,5.0,7.0,74,0.00,,,0.24,Wunderground v.1.15,2013-06-22 17:22:00,
2013-06-22 12:26:00,83.6,73.6,30.00,SE,133,5.0,7.0,72,0.00,,,0.24,Wunderground v.1.15,2013-06-22 17:26:00,
2013-06-22 12:28:00,83.6,73.6,29.99,SE,124,5.0,7.0,72,0.00,,,0.24,Wunderground v.1.15,2013-06-22 17:28:00,
2013-06-22 12:32:00,83.5,73.5,30.00,SSE,165,5.0,7.0,72,0.00,,,0.24,Wunderground v.1.15,2013-06-22 17:32:00,
2013-06-22 12:34:00,83.6,74.0,30.00,ESE,117,5.0,10.0,73,0.00,,,0.24,Wunderground v.1.15,2013-06-22 17:34:00,
2013-06-22 12:36:00,83.2,73.6,30.00,ESE,119,6.0,10.0,73,0.00,,,0.24,Wunderground v.1.15,2013-06-22 17:36:00,
2013-06-22 12:40:00,82.8,74.1,29.99,SE,124,7.0,11.0,75,0.00,,,0.24,Wunderground v.1.15,2013-06-22 17:40:00,
2013-06-22 12:42:00,82.7,73.2,29.99,ESE,107,9.0,11.0,73,0.00,,,0.24,Wunderground v.1.15,2013-06-22 17:42:00,
2013-06-22 12:44:00,82.6,73.1,29.99,ESE,122,10.0,13.0,73,0.00,,,0.24,Wunderground v.1.15,2013-06-22 17:44:00,
2013-06-22 12:46:00,82.4,73.3,29.99,SE,124,10.0,13.0,74,0.00,,,0.24,Wunderground v.1.15,2013-06-22 17:46:00,
2013-06-22 12:48:00,82.3,73.6,29.98,ESE,109,11.0,13.0,75,0.00,,,0.24,Wunderground v.1.15,2013-06-22 17:48:00,
2013-06-22 12:50:00,82.3,72.8,29.98,SE,139,11.0,11.0,73,0.00,,,0.24,Wunderground v.1.15,2013-06-22 17:50:00,
2013-06-22 12:52:00,82.4,73.3,29.98,SE,127,11.0,13.0,74,0.00,,,0.24,Wunderground v.1.15,2013-06-22 17:52:00,
2013-06-22 12:56:00,82.4,74.1,29.98,ESE,122,11.0,13.0,76,0.00,,,0.24,Wunderground v.1.15,2013-06-22 17:56:00,
2013-06-22 13:00:00,82.4,74.5,29.98,ESE,111,10.0,10.0,77,0.00,,,0.24,Wunderground v.1.15,2013-06-22 18:00:00,
2013-06-22 13:02:00,82.4,73.7,29.99,East,101,10.0,10.0,75,0.00,,,0.24,Wunderground v.1.15,2013-06-22 18:02:00,
2013-06-22 13:06:00,82.2,73.9,29.99,ESE,110,10.0,10.0,76,0.00,,,0.24,Wunderground v.1.15,2013-06-22 18:06:00,
2013-06-22 13:10:00,82.1,74.6,29.99,SE,127,9.0,11.0,78,0.00,,,0.24,Wunderground v.1.15,2013-06-22 18:10:00,
2013-06-22 13:12:00,82.1,74.2,29.99,ESE,105,9.0,12.0,77,0.00,,,0.24,Wunderground v.1.15,2013-06-22 18:12:00,
2013-06-22 13:16:00,82.0,74.5,29.99,ESE,113,10.0,12.0,78,0.00,,,0.24,Wunderground v.1.15,2013-06-22 18:16:00,
2013-06-22 13:20:00,81.9,74.7,29.98,ESE,115,10.0,13.0,79,0.00,,,0.24,Wunderground v.1.15,2013-06-22 18:20:00,
2013-06-22 13:22:00,81.8,74.3,29.98,ESE,115,11.0,13.0,78,0.00,,,0.24,Wunderground v.1.15,2013-06-22 18:22:00,
2013-06-22 13:24:00,81.9,75.1,29.98,SE,124,11.0,13.0,80,0.00,,,0.24,Wunderground v.1.15,2013-06-22 18:24:00,
2013-06-22 13:28:00,81.9,74.7,29.99,ESE,121,10.0,13.0,79,0.00,,,0.24,Wunderground v.1.15,2013-06-22 18:28:00,
2013-06-22 13:30:00,81.9,75.1,29.99,ESE,117,10.0,10.0,80,0.00,,,0.24,Wunderground v.1.15,2013-06-22 18:30:00,
2013-06-22 13:36:00,81.7,74.9,29.99,SE,131,10.0,12.0,80,0.00,,,0.24,Wunderground v.1.15,2013-06-22 18:36:00,
2013-06-22 13:40:00,81.8,75.4,29.99,SE,135,11.0,11.0,81,0.00,,,0.24,Wunderground v.1.15,2013-06-22 18:40:00,
2013-06-22 13:44:00,81.8,75.4,29.99,SE,131,10.0,11.0,81,0.00,,,0.24,Wunderground v.1.15,2013-06-22 18:44:00,
2013-06-22 13:46:00,81.6,75.2,29.99,SE,127,11.0,12.0,81,0.00,,,0.24,Wunderground v.1.15,2013-06-22 18:46:00,
2013-06-22 13:48:00,81.6,75.2,29.98,ESE,120,10.0,12.0,81,0.00,,,0.24,Wunderground v.1.15,2013-06-22 18:48:00,
2013-06-22 13:50:00,81.6,75.9,29.99,ESE,121,10.0,10.0,83,0.00,,,0.24,Wunderground v.1.15,2013-06-22 18:50:00,
2013-06-22 13:54:00,81.5,75.5,29.98,ESE,108,10.0,12.0,82,0.00,,,0.24,Wunderground v.1.15,2013-06-22 18:54:00,
2013-06-22 13:56:00,81.5,75.5,29.98,SE,124,10.0,12.0,82,0.00,,,0.24,Wunderground v.1.15,2013-06-22 18:56:00,
2013-06-22 13:58:00,81.6,75.6,29.98,ESE,122,9.0,12.0,82,0.00,,,0.24,Wunderground v.1.15,2013-06-22 18:58:00,
2013-06-22 14:00:00,81.8,75.8,29.98,ESE,108,8.0,10.0,82,0.00,,,0.24,Wunderground v.1.15,2013-06-22 19:00:00,
2013-06-22 14:02:00,81.8,75.4,29.98,SE,143,8.0,10.0,81,0.00,,,0.24,Wunderground v.1.15,2013-06-22 19:02:00,
2013-06-22 14:06:00,82.0,76.3,29.98,SE,127,8.0,10.0,83,0.00,,,0.24,Wunderground v.1.15,2013-06-22 19:06:00,
2013-06-22 14:08:00,82.1,76.1,29.97,SSE,166,8.0,10.0,82,0.00,,,0.24,Wunderground v.1.15,2013-06-22 19:08:00,
2013-06-22 14:10:00,82.1,76.1,29.97,SE,131,8.0,10.0,82,0.00,,,0.24,Wunderground v.1.15,2013-06-22 19:10:00,
2013-06-22 14:12:00,82.0,76.0,29.97,SE,142,9.0,10.0,82,0.00,,,0.24,Wunderground v.1.15,2013-06-22 19:12:00,
2013-06-22 14:14:00,82.0,76.0,29.97,East,98,9.0,11.0,82,0.00,,,0.24,Wunderground v.1.15,2013-06-22 19:14:00,
2013-06-22 14:20:00,82.0,75.6,29.97,SE,131,9.0,9.0,81,0.00,,,0.24,Wunderground v.1.15,2013-06-22 19:20:00,
2013-06-22 14:24:00,81.9,75.1,29.97,ESE,112,10.0,10.0,80,0.00,,,0.24,Wunderground v.1.15,2013-06-22 19:24:00,
2013-06-22 14:26:00,82.1,76.8,29.97,East,79,9.0,10.0,84,0.00,,,0.24,Wunderground v.1.15,2013-06-22 19:26:00,
2013-06-22 14:30:00,82.0,75.6,29.97,SE,128,9.0,13.0,81,0.00,,,0.24,Wunderground v.1.15,2013-06-22 19:30:00,
2013-06-22 14:32:00,81.8,75.4,29.96,SE,136,10.0,13.0,81,0.00,,,0.24,Wunderground v.1.15,2013-06-22 19:32:00,
2013-06-22 14:34:00,81.7,75.3,29.96,ESE,120,10.0,13.0,81,0.00,,,0.24,Wunderground v.1.15,2013-06-22 19:34:00,
2013-06-22 14:36:00,81.7,76.0,29.96,SE,131,10.0,13.0,83,0.00,,,0.24,Wunderground v.1.15,2013-06-22 19:36:00,
2013-06-22 14:40:00,81.7,76.4,29.96,SE,135,11.0,11.0,84,0.00,,,0.24,Wunderground v.1.15,2013-06-22 19:40:00,
2013-06-22 14:42:00,81.8,76.1,29.96,SE,140,10.0,11.0,83,0.00,,,0.24,Wunderground v.1.15,2013-06-22 19:42:00,
2013-06-22 14:46:00,81.9,75.9,29.95,ESE,113,8.0,11.0,82,0.00,,,0.24,Wunderground v.1.15,2013-06-22 19:46:00,
2013-06-22 14:48:00,82.1,76.8,29.95,ESE,115,6.0,11.0,84,0.00,,,0.24,Wunderground v.1.15,2013-06-22 19:48:00,
2013-06-22 14:50:00,82.1,76.1,29.95,ESE,105,6.0,7.0,82,0.00,,,0.24,Wunderground v.1.15,2013-06-22 19:50:00,
2013-06-22 14:52:00,82.1,76.4,29.95,ESE,115,6.0,7.0,83,0.00,,,0.24,Wunderground v.1.15,2013-06-22 19:52:00,
2013-06-22 14:56:00,82.3,77.0,29.95,SE,128,6.0,7.0,84,0.00,,,0.24,Wunderground v.1.15,2013-06-22 19:56:00,
2013-06-22 15:00:00,82.2,76.2,29.95,SE,127,7.0,9.0,82,0.00,,,0.24,Wunderground v.1.15,2013-06-22 20:00:00,
2013-06-22 15:02:00,82.1,76.1,29.94,SE,131,7.0,9.0,82,0.00,,,0.24,Wunderground v.1.15,2013-06-22 20:02:00,
2013-06-22 15:04:00,82.0,76.3,29.94,SE,127,7.0,12.0,83,0.00,,,0.24,Wunderground v.1.15,2013-06-22 20:04:00,
2013-06-22 15:06:00,81.9,76.2,29.94,ESE,105,9.0,12.0,83,0.00,,,0.24,Wunderground v.1.15,2013-06-22 20:06:00,
2013-06-22 15:10:00,81.9,76.6,29.94,ESE,105,10.0,11.0,84,0.00,,,0.24,Wunderground v.1.15,2013-06-22 20:10:00,
2013-06-22 15:12:00,81.9,76.6,29.94,ESE,115,10.0,11.0,84,0.00,,,0.24,Wunderground v.1.15,2013-06-22 20:12:00,
2013-06-22 15:14:00,81.9,76.6,29.94,ESE,120,11.0,13.0,84,0.00,,,0.24,Wunderground v.1.15,2013-06-22 20:14:00,
2013-06-22 15:16:00,81.8,76.8,29.94,ESE,122,11.0,15.0,85,0.00,,,0.24,Wunderground v.1.15,2013-06-22 20:16:00,
2013-06-22 15:20:00,81.6,76.6,29.94,SE,129,12.0,12.0,85,0.00,,,0.24,Wunderground v.1.15,2013-06-22 20:20:00,
2013-06-22 15:24:00,81.6,76.3,29.94,SE,127,12.0,13.0,84,0.00,,,0.24,Wunderground v.1.15,2013-06-22 20:24:00,
2013-06-22 15:26:00,81.6,76.3,29.94,ESE,119,11.0,13.0,84,0.00,,,0.24,Wunderground v.1.15,2013-06-22 20:26:00,
2013-06-22 15:28:00,81.8,76.8,29.94,East,90,9.0,16.0,85,0.00,,,0.24,Wunderground v.1.15,2013-06-22 20:28:00,
2013-06-22 15:32:00,81.7,76.7,29.94,ESE,117,9.0,15.0,85,0.00,,,0.24,Wunderground v.1.15,2013-06-22 20:32:00,
2013-06-22 15:34:00,81.7,77.1,29.94,ESE,114,9.0,15.0,86,0.00,,,0.24,Wunderground v.1.15,2013-06-22 20:34:00,
2013-06-22 15:36:00,81.7,77.1,29.94,ESE,113,9.0,15.0,86,0.00,,,0.24,Wunderground v.1.15,2013-06-22 20:36:00,
2013-06-22 15:40:00,81.7,76.7,29.93,SSE,166,10.0,10.0,85,0.00,,,0.24,Wunderground v.1.15,2013-06-22 20:40:00,
2013-06-22 15:44:00,81.9,76.9,29.93,ESE,103,9.0,10.0,85,0.00,,,0.24,Wunderground v.1.15,2013-06-22 20:44:00,
2013-06-22 15:46:00,81.9,76.9,29.92,SE,143,8.0,10.0,85,0.00,,,0.24,Wunderground v.1.15,2013-06-22 20:46:00,
2013-06-22 15:48:00,82.0,76.7,29.92,SE,124,9.0,11.0,84,0.00,,,0.24,Wunderground v.1.15,2013-06-22 20:48:00,
2013-06-22 15:50:00,82.0,76.3,29.92,SSE,150,9.0,9.0,83,0.00,,,0.24,Wunderground v.1.15,2013-06-22 20:50:00,
2013-06-22 15:54:00,81.9,76.2,29.91,ENE,65,11.0,11.0,83,0.00,,,0.24,Wunderground v.1.15,2013-06-22 20:54:00,
2013-06-22 15:56:00,81.9,76.9,29.90,SSE,162,11.0,11.0,85,0.00,,,0.24,Wunderground v.1.15,2013-06-22 20:56:00,
2013-06-22 15:58:00,82.0,76.7,29.90,ESE,115,10.0,11.0,84,0.00,,,0.24,Wunderground v.1.15,2013-06-22 20:58:00,
2013-06-22 16:00:00,82.0,76.3,29.90,SE,143,10.0,10.0,83,0.00,,,0.24,Wunderground v.1.15,2013-06-22 21:00:00,
2013-06-22 16:02:00,81.9,76.2,29.89,ESE,112,10.0,13.0,83,0.00,,,0.24,Wunderground v.1.15,2013-06-22 21:02:00,
2013-06-22 16:04:00,81.9,76.2,29.89,SE,140,11.0,15.0,83,0.00,,,0.24,Wunderground v.1.15,2013-06-22 21:04:00,
2013-06-22 16:06:00,81.8,76.1,29.90,SE,128,11.0,15.0,83,0.00,,,0.24,Wunderground v.1.15,2013-06-22 21:06:00,
2013-06-22 16:12:00,81.8,76.1,29.91,ESE,103,10.0,11.0,83,0.00,,,0.24,Wunderground v.1.15,2013-06-22 21:12:00,
2013-06-22 16:14:00,81.8,76.1,29.91,SE,132,9.0,11.0,83,0.00,,,0.24,Wunderground v.1.15,2013-06-22 21:14:00,
2013-06-22 16:18:00,81.7,76.0,29.90,South,185,9.0,15.0,83,0.00,,,0.24,Wunderground v.1.15,2013-06-22 21:18:00,
2013-06-22 16:20:00,81.6,75.9,29.90,SSE,158,10.0,10.0,83,0.00,,,0.24,Wunderground v.1.15,2013-06-22 21:20:00,
2013-06-22 16:24:00,81.6,75.9,29.90,SSE,150,10.0,10.0,83,0.00,,,0.24,Wunderground v.1.15,2013-06-22 21:24:00,
2013-06-22 16:26:00,81.6,76.3,29.91,SE,138,9.0,11.0,84,0.00,,,0.24,Wunderground v.1.15,2013-06-22 21:26:00,
2013-06-22 16:28:00,81.6,76.3,29.90,ESE,119,9.0,12.0,84,0.00,,,0.24,Wunderground v.1.15,2013-06-22 21:28:00,
2013-06-22 16:32:00,81.5,75.8,29.90,SE,146,9.0,9.0,83,0.00,,,0.24,Wunderground v.1.15,2013-06-22 21:32:00,
2013-06-22 16:36:00,81.4,76.1,29.90,SE,124,10.0,14.0,84,0.00,,,0.24,Wunderground v.1.15,2013-06-22 21:36:00,
2013-06-22 16:38:00,81.4,76.1,29.90,ESE,103,10.0,14.0,84,0.00,,,0.24,Wunderground v.1.15,2013-06-22 21:38:00,
2013-06-22 16:42:00,81.4,76.1,29.89,ESE,120,10.0,10.0,84,0.00,,,0.24,Wunderground v.1.15,2013-06-22 21:42:00,
2013-06-22 16:44:00,81.4,76.1,29.89,SSE,150,9.0,14.0,84,0.00,,,0.24,Wunderground v.1.15,2013-06-22 21:44:00,
2013-06-22 16:46:00,81.4,76.5,29.89,East,82,10.0,14.0,85,0.00,,,0.24,Wunderground v.1.15,2013-06-22 21:46:00,
2013-06-22 16:48:00,81.3,76.0,29.89,SSE,148,10.0,14.0,84,0.00,,,0.24,Wunderground v.1.15,2013-06-22 21:48:00,
2013-06-22 16:50:00,81.3,76.0,29.89,SE,143,10.0,10.0,84,0.00,,,0.24,Wunderground v.1.15,2013-06-22 21:50:00,
2013-06-22 16:52:00,81.3,76.0,29.90,SSE,153,10.0,12.0,84,0.00,,,0.24,Wunderground v.1.15,2013-06-22 21:52:00,
2013-06-22 16:58:00,81.3,76.4,29.90,SSE,162,8.0,12.0,85,0.00,,,0.24,Wunderground v.1.15,2013-06-22 21:58:00,
2013-06-22 17:00:00,81.3,76.0,29.90,SW,221,8.0,8.0,84,0.00,,,0.24,Wunderground v.1.15,2013-06-22 22:00:00,
2013-06-22 17:02:00,81.3,76.0,29.90,ESE,122,8.0,8.0,84,0.00,,,0.24,Wunderground v.1.15,2013-06-22 22:02:00,
2013-06-22 17:04:00,81.2,75.9,29.90,SE,142,8.0,8.0,84,0.00,,,0.24,Wunderground v.1.15,2013-06-22 22:04:00,
2013-06-22 17:06:00,81.2,75.9,29.90,SE,131,8.0,8.0,84,0.00,,,0.24,Wunderground v.1.15,2013-06-22 22:06:00,
2013-06-22 17:08:00,81.2,75.9,29.90,SE,124,8.0,12.0,84,0.00,,,0.24,Wunderground v.1.15,2013-06-22 22:08:00,
2013-06-22 17:10:00,81.2,76.3,29.90,ESE,119,8.0,8.0,85,0.00,,,0.24,Wunderground v.1.15,2013-06-22 22:10:00,
2013-06-22 17:12:00,81.1,75.8,29.90,SSE,147,8.0,8.0,84,0.00,,,0.24,Wunderground v.1.15,2013-06-22 22:12:00,
2013-06-22 17:14:00,81.1,76.2,29.90,SE,143,8.0,10.0,85,0.00,,,0.24,Wunderground v.1.15,2013-06-22 22:14:00,
2013-06-22 17:18:00,81.0,76.1,29.90,SSE,166,8.0,10.0,85,0.00,,,0.24,Wunderground v.1.15,2013-06-22 22:18:00,
2013-06-22 17:20:00,81.0,76.1,29.90,South,172,8.0,12.0,85,0.00,,,0.24,Wunderground v.1.15,2013-06-22 22:20:00,
2013-06-22 17:24:00,80.8,75.9,29.90,ESE,122,8.0,12.0,85,0.00,,,0.24,Wunderground v.1.15,2013-06-22 22:24:00,
2013-06-22 17:28:00,80.6,76.0,29.90,SE,141,8.0,12.0,86,0.00,,,0.24,Wunderground v.1.15,2013-06-22 22:28:00,
2013-06-22 17:34:00,80.5,75.9,29.89,South,191,8.0,10.0,86,0.00,,,0.24,Wunderground v.1.15,2013-06-22 22:34:00,
2013-06-22 17:36:00,80.5,75.6,29.89,SE,129,8.0,13.0,85,0.00,,,0.24,Wunderground v.1.15,2013-06-22 22:36:00,
2013-06-22 17:40:00,80.3,75.4,29.90,South,172,10.0,14.0,85,0.00,,,0.24,Wunderground v.1.15,2013-06-22 22:40:00,
2013-06-22 17:42:00,80.3,75.7,29.90,SSE,152,9.0,14.0,86,0.00,,,0.24,Wunderground v.1.15,2013-06-22 22:42:00,
2013-06-22 17:44:00,80.3,75.7,29.90,SE,136,9.0,14.0,86,0.00,,,0.24,Wunderground v.1.15,2013-06-22 22:44:00,
2013-06-22 17:46:00,80.3,75.4,29.90,SSE,162,10.0,14.0,85,0.00,,,0.24,Wunderground v.1.15,2013-06-22 22:46:00,
2013-06-22 17:50:00,80.2,75.3,29.90,South,187,9.0,9.0,85,0.00,,,0.24,Wunderground v.1.15,2013-06-22 22:50:00,
2013-06-22 17:52:00,80.2,75.3,29.90,SSW,194,9.0,10.0,85,0.00,,,0.24,Wunderground v.1.15,2013-06-22 22:52:00,
2013-06-22 17:56:00,80.2,75.3,29.91,SSE,165,9.0,11.0,85,0.00,,,0.24,Wunderground v.1.15,2013-06-22 22:56:00,
2013-06-22 17:58:00,80.1,75.2,29.90,SSW,193,9.0,11.0,85,0.00,,,0.24,Wunderground v.1.15,2013-06-22 22:58:00,
2013-06-22 18:00:00,80.1,74.8,29.90,SSW,204,9.0,9.0,84,0.00,,,0.24,Wunderground v.1.15,2013-06-22 23:00:00,
2013-06-22 18:04:00,80.1,75.2,29.90,SSE,160,8.0,9.0,85,0.00,,,0.24,Wunderground v.1.15,2013-06-22 23:04:00,
2013-06-22 18:06:00,80.1,75.2,29.90,SE,146,8.0,10.0,85,0.00,,,0.24,Wunderground v.1.15,2013-06-22 23:06:00,
2013-06-22 18:10:00,80.1,74.8,29.90,South,176,8.0,12.0,84,0.00,,,0.24,Wunderground v.1.15,2013-06-22 23:10:00,
2013-06-22 18:12:00,80.0,74.7,29.91,SSE,165,9.0,12.0,84,0.00,,,0.24,Wunderground v.1.15,2013-06-22 23:12:00,
2013-06-22 18:14:00,80.0,74.7,29.90,SSE,156,8.0,12.0,84,0.00,,,0.24,Wunderground v.1.15,2013-06-22 23:14:00,
2013-06-22 18:16:00,80.0,74.7,29.90,SSE,167,8.0,12.0,84,0.00,,,0.24,Wunderground v.1.15,2013-06-22 23:16:00,
2013-06-22 18:18:00,80.0,74.7,29.91,SSE,163,8.0,12.0,84,0.00,,,0.24,Wunderground v.1.15,2013-06-22 23:18:00,
2013-06-22 18:20:00,80.0,74.7,29.91,SSE,158,7.0,7.0,84,0.00,,,0.24,Wunderground v.1.15,2013-06-22 23:20:00,
2013-06-22 18:24:00,80.0,74.7,29.90,South,169,6.0,11.0,84,0.00,,,0.24,Wunderground v.1.15,2013-06-22 23:24:00,
2013-06-22 18:26:00,80.0,74.7,29.90,South,170,6.0,11.0,84,0.00,,,0.24,Wunderground v.1.15,2013-06-22 23:26:00,
2013-06-22 18:28:00,80.0,74.7,29.90,South,170,6.0,11.0,84,0.00,,,0.24,Wunderground v.1.15,2013-06-22 23:28:00,
2013-06-22 18:30:00,79.9,74.6,29.91,SSE,149,6.0,15.0,84,0.00,,,0.24,Wunderground v.1.15,2013-06-22 23:30:00,
2013-06-22 18:34:00,79.9,74.6,29.91,SSE,148,6.0,15.0,84,0.00,,,0.24,Wunderground v.1.15,2013-06-22 23:34:00,
2013-06-22 18:36:00,79.8,74.2,29.91,South,186,7.0,15.0,83,0.00,,,0.24,Wunderground v.1.15,2013-06-22 23:36:00,
2013-06-22 18:40:00,79.8,74.5,29.91,South,177,8.0,10.0,84,0.00,,,0.24,Wunderground v.1.15,2013-06-22 23:40:00,
2013-06-22 18:42:00,79.8,74.2,29.91,South,170,8.0,13.0,83,0.00,,,0.24,Wunderground v.1.15,2013-06-22 23:42:00,
2013-06-22 18:46:00,79.7,74.1,29.91,South,180,9.0,14.0,83,0.00,,,0.24,Wunderground v.1.15,2013-06-22 23:46:00,
2013-06-22 18:48:00,79.6,74.0,29.91,SSW,193,8.0,14.0,83,0.00,,,0.24,Wunderground v.1.15,2013-06-22 23:48:00,
2013-06-22 18:50:00,79.6,73.6,29.91,South,184,9.0,9.0,82,0.00,,,0.24,Wunderground v.1.15,2013-06-22 23:50:00,
2013-06-22 18:54:00,79.5,73.2,29.91,SSW,193,8.0,9.0,81,0.00,,,0.24,Wunderground v.1.15,2013-06-22 23:54:00,
2013-06-22 18:58:00,79.4,73.1,29.91,SSE,163,10.0,14.0,81,0.00,,,0.24,Wunderground v.1.15,2013-06-22 23:58:00,
2013-06-22 19:00:00,79.4,73.1,29.91,SSE,154,10.0,15.0,81,0.00,,,0.24,Wunderground v.1.15,2013-06-23 00:00:00,
2013-06-22 19:02:00,79.3,73.0,29.91,SE,131,10.0,15.0,81,0.00,,,0.24,Wunderground v.1.15,2013-06-23 00:02:00,
2013-06-22 19:04:00,79.3,73.0,29.91,SE,141,10.0,15.0,81,0.00,,,0.24,Wunderground v.1.15,2013-06-23 00:04:00,
2013-06-22 19:06:00,79.3,73.0,29.91,South,191,9.0,15.0,81,0.00,,,0.24,Wunderground v.1.15,2013-06-23 00:06:00,
2013-06-22 19:08:00,79.2,72.9,29.91,South,187,8.0,15.0,81,0.00,,,0.24,Wunderground v.1.15,2013-06-23 00:08:00,
2013-06-22 19:12:00,79.1,72.4,29.91,SSW,193,7.0,8.0,80,0.00,,,0.24,Wunderground v.1.15,2013-06-23 00:12:00,
2013-06-22 19:14:00,79.0,72.7,29.91,South,191,7.0,14.0,81,0.00,,,0.24,Wunderground v.1.15,2013-06-23 00:14:00,
2013-06-22 19:16:00,78.9,72.2,29.91,SSW,195,7.0,14.0,80,0.00,,,0.24,Wunderground v.1.15,2013-06-23 00:16:00,
2013-06-22 19:18:00,78.8,72.5,29.91,SE,128,7.0,14.0,81,0.00,,,0.24,Wunderground v.1.15,2013-06-23 00:18:00,
2013-06-22 19:20:00,78.7,72.4,29.91,South,188,7.0,7.0,81,0.00,,,0.24,Wunderground v.1.15,2013-06-23 00:20:00,
2013-06-22 19:22:00,78.6,72.3,29.91,South,172,7.0,15.0,81,0.00,,,0.24,Wunderground v.1.15,2013-06-23 00:22:00,
2013-06-22 19:24:00,78.5,72.2,29.91,South,173,7.0,15.0,81,0.00,,,0.24,Wunderground v.1.15,2013-06-23 00:24:00,
2013-06-22 19:26:00,78.4,71.7,29.91,SSE,153,7.0,15.0,80,0.00,,,0.24,Wunderground v.1.15,2013-06-23 00:26:00,
2013-06-22 19:28:00,78.3,72.0,29.91,SSE,162,8.0,15.0,81,0.00,,,0.24,Wunderground v.1.15,2013-06-23 00:28:00,
2013-06-22 19:34:00,77.9,71.6,29.91,South,191,8.0,12.0,81,0.00,,,0.24,Wunderground v.1.15,2013-06-23 00:34:00,
2013-06-22 19:36:00,77.8,71.5,29.91,South,187,8.0,12.0,81,0.00,,,0.24,Wunderground v.1.15,2013-06-23 00:36:00,
2013-06-22 19:38:00,77.7,71.8,29.91,SW,232,8.0,12.0,82,0.00,,,0.24,Wunderground v.1.15,2013-06-23 00:38:00,
2013-06-22 19:40:00,77.6,71.7,29.91,South,180,8.0,11.0,82,0.00,,,0.24,Wunderground v.1.15,2013-06-23 00:40:00,
2013-06-22 19:42:00,77.5,71.6,29.91,SSE,164,8.0,13.0,82,0.00,,,0.24,Wunderground v.1.15,2013-06-23 00:42:00,
2013-06-22 19:46:00,77.4,71.5,29.91,SE,141,8.0,15.0,82,0.00,,,0.24,Wunderground v.1.15,2013-06-23 00:46:00,
2013-06-22 19:52:00,77.0,71.8,29.91,SSW,200,7.0,11.0,84,0.00,,,0.24,Wunderground v.1.15,2013-06-23 00:52:00,
2013-06-22 19:54:00,77.0,71.8,29.91,South,172,7.0,14.0,84,0.00,,,0.24,Wunderground v.1.15,2013-06-23 00:54:00,
2013-06-22 20:00:00,76.6,71.4,29.91,SE,136,9.0,17.0,84,0.00,,,0.24,Wunderground v.1.15,2013-06-23 01:00:00,
2013-06-22 20:02:00,76.5,71.3,29.91,SSE,165,10.0,17.0,84,0.00,,,0.24,Wunderground v.1.15,2013-06-23 01:02:00,
2013-06-22 20:04:00,76.4,71.2,29.91,SSE,154,11.0,17.0,84,0.00,,,0.24,Wunderground v.1.15,2013-06-23 01:04:00,
2013-06-22 20:08:00,76.2,71.4,29.91,SSE,159,10.0,17.0,85,0.00,,,0.24,Wunderground v.1.15,2013-06-23 01:08:00,
2013-06-22 20:10:00,76.2,71.4,29.91,SE,137,10.0,13.0,85,0.00,,,0.24,Wunderground v.1.15,2013-06-23 01:10:00,
2013-06-22 20:14:00,76.1,71.3,29.91,ESE,117,11.0,17.0,85,0.00,,,0.24,Wunderground v.1.15,2013-06-23 01:14:00,
2013-06-22 20:16:00,76.1,71.3,29.91,South,191,11.0,17.0,85,0.00,,,0.24,Wunderground v.1.15,2013-06-23 01:16:00,
2013-06-22 20:18:00,76.0,71.2,29.91,SSW,195,11.0,17.0,85,0.00,,,0.24,Wunderground v.1.15,2013-06-23 01:18:00,
2013-06-22 20:20:00,75.9,71.1,29.91,South,170,11.0,11.0,85,0.00,,,0.24,Wunderground v.1.15,2013-06-23 01:20:00,
2013-06-22 20:22:00,75.8,71.3,29.91,South,181,11.0,15.0,86,0.00,,,0.24,Wunderground v.1.15,2013-06-23 01:22:00,
2013-06-22 20:26:00,75.7,71.2,29.91,SSE,160,11.0,15.0,86,0.00,,,0.24,Wunderground v.1.15,2013-06-23 01:26:00,
2013-06-22 20:30:00,75.7,70.9,29.91,South,169,12.0,12.0,85,0.00,,,0.24,Wunderground v.1.15,2013-06-23 01:30:00,
2013-06-22 20:32:00,75.6,71.1,29.91,South,188,12.0,13.0,86,0.00,,,0.24,Wunderground v.1.15,2013-06-23 01:32:00,
2013-06-22 20:34:00,75.6,70.8,29.91,SSW,193,12.0,18.0,85,0.00,,,0.24,Wunderground v.1.15,2013-06-23 01:34:00,
2013-06-22 20:38:00,75.5,70.7,29.91,SSE,158,12.0,18.0,85,0.00,,,0.24,Wunderground v.1.15,2013-06-23 01:38:00,
2013-06-22 20:40:00,75.5,70.3,29.91,SSE,165,12.0,17.0,84,0.00,,,0.24,Wunderground v.1.15,2013-06-23 01:40:00,
2013-06-22 20:42:00,75.6,70.4,29.91,SSE,163,13.0,18.0,84,0.00,,,0.24,Wunderground v.1.15,2013-06-23 01:42:00,
2013-06-22 20:44:00,75.6,70.4,29.91,South,169,14.0,19.0,84,0.00,,,0.24,Wunderground v.1.15,2013-06-23 01:44:00,
2013-06-22 20:46:00,75.6,70.4,29.91,SSW,194,14.0,19.0,84,0.00,,,0.24,Wunderground v.1.15,2013-06-23 01:46:00,
2013-06-22 20:48:00,75.7,70.2,29.91,SSW,198,15.0,19.0,83,0.00,,,0.24,Wunderground v.1.15,2013-06-23 01:48:00,
2013-06-22 20:52:00,75.7,70.2,29.91,South,169,15.0,19.0,83,0.00,,,0.24,Wunderground v.1.15,2013-06-23 01:52:00,
2013-06-22 20:54:00,75.7,70.2,29.91,South,191,15.0,19.0,83,0.00,,,0.24,Wunderground v.1.15,2013-06-23 01:54:00,
2013-06-22 21:00:00,75.6,69.7,29.91,South,186,14.0,17.0,82,0.00,,,0.24,Wunderground v.1.15,2013-06-23 02:00:00,
2013-06-22 21:04:00,75.5,69.6,29.91,South,174,14.0,20.0,82,0.00,,,0.24,Wunderground v.1.15,2013-06-23 02:04:00,
2013-06-22 21:06:00,75.5,69.6,29.91,SSW,192,15.0,20.0,82,0.00,,,0.24,Wunderground v.1.15,2013-06-23 02:06:00,
2013-06-22 21:08:00,75.5,69.6,29.91,SSE,165,14.0,20.0,82,0.00,,,0.24,Wunderground v.1.15,2013-06-23 02:08:00,
2013-06-22 21:10:00,75.5,69.6,29.92,SSE,165,14.0,14.0,82,0.00,,,0.24,Wunderground v.1.15,2013-06-23 02:10:00,
2013-06-22 21:16:00,75.3,69.4,29.92,SSE,147,12.0,17.0,82,0.00,,,0.24,Wunderground v.1.15,2013-06-23 02:16:00,
2013-06-22 21:18:00,75.3,69.4,29.92,SSE,163,12.0,17.0,82,0.00,,,0.24,Wunderground v.1.15,2013-06-23 02:18:00,
2013-06-22 21:20:00,75.3,69.4,29.92,South,186,12.0,12.0,82,0.00,,,0.24,Wunderground v.1.15,2013-06-23 02:20:00,
2013-06-22 21:24:00,75.3,69.4,29.93,South,174,13.0,13.0,82,0.00,,,0.24,Wunderground v.1.15,2013-06-23 02:24:00,
2013-06-22 21:26:00,75.2,69.3,29.93,South,183,12.0,13.0,82,0.00,,,0.24,Wunderground v.1.15,2013-06-23 02:26:00,
2013-06-22 21:28:00,75.1,69.2,29.93,SSE,165,12.0,13.0,82,0.00,,,0.24,Wunderground v.1.15,2013-06-23 02:28:00,
2013-06-22 21:30:00,75.2,69.3,29.93,South,170,11.0,11.0,82,0.00,,,0.24,Wunderground v.1.15,2013-06-23 02:30:00,
2013-06-22 21:32:00,75.1,69.2,29.93,South,183,11.0,11.0,82,0.00,,,0.24,Wunderground v.1.15,2013-06-23 02:32:00,
2013-06-22 21:36:00,75.0,69.1,29.93,South,173,10.0,11.0,82,0.00,,,0.24,Wunderground v.1.15,2013-06-23 02:36:00,
2013-06-22 21:38:00,74.9,69.0,29.94,South,186,9.0,11.0,82,0.00,,,0.24,Wunderground v.1.15,2013-06-23 02:38:00,
2013-06-22 21:40:00,74.9,69.0,29.94,South,184,10.0,15.0,82,0.00,,,0.24,Wunderground v.1.15,2013-06-23 02:40:00,
2013-06-22 21:42:00,74.9,69.0,29.94,South,181,10.0,15.0,82,0.00,,,0.24,Wunderground v.1.15,2013-06-23 02:42:00,
2013-06-22 21:44:00,74.8,68.9,29.94,South,179,10.0,15.0,82,0.00,,,0.24,Wunderground v.1.15,2013-06-23 02:44:00,
2013-06-22 21:46:00,74.7,68.8,29.94,South,187,11.0,15.0,82,0.00,,,0.24,Wunderground v.1.15,2013-06-23 02:46:00,
2013-06-22 21:50:00,74.7,68.8,29.94,South,184,11.0,11.0,82,0.00,,,0.24,Wunderground v.1.15,2013-06-23 02:50:00,
2013-06-22 21:52:00,74.7,68.8,29.94,South,183,11.0,11.0,82,0.00,,,0.24,Wunderground v.1.15,2013-06-23 02:52:00,
2013-06-22 21:54:00,74.7,68.8,29.95,South,188,11.0,11.0,82,0.00,,,0.24,Wunderground v.1.15,2013-06-23 02:54:00,
2013-06-22 21:58:00,74.5,68.6,29.95,SSE,166,10.0,12.0,82,0.00,,,0.24,Wunderground v.1.15,2013-06-23 02:58:00,
2013-06-22 22:00:00,74.4,68.5,29.94,SSW,198,10.0,10.0,82,0.00,,,0.24,Wunderground v.1.15,2013-06-23 03:00:00,
2013-06-22 22:04:00,74.3,68.4,29.95,SSE,159,10.0,11.0,82,0.00,,,0.24,Wunderground v.1.15,2013-06-23 03:04:00,
2013-06-22 22:06:00,74.2,68.3,29.95,SSW,204,10.0,11.0,82,0.00,,,0.24,Wunderground v.1.15,2013-06-23 03:06:00,
2013-06-22 22:10:00,74.1,68.3,29.95,SSW,203,10.0,10.0,82,0.00,,,0.24,Wunderground v.1.15,2013-06-23 03:10:00,
2013-06-22 22:12:00,74.1,68.3,29.95,South,188,10.0,10.0,82,0.00,,,0.24,Wunderground v.1.15,2013-06-23 03:12:00,
2013-06-22 22:16:00,74.0,68.5,29.95,South,179,11.0,11.0,83,0.00,,,0.24,Wunderground v.1.15,2013-06-23 03:16:00,
2013-06-22 22:20:00,74.0,68.2,29.95,SSE,162,11.0,13.0,82,0.00,,,0.24,Wunderground v.1.15,2013-06-23 03:20:00,
2013-06-22 22:24:00,74.0,68.2,29.95,SSW,198,11.0,15.0,82,0.00,,,0.24,Wunderground v.1.15,2013-06-23 03:24:00,
2013-06-22 22:26:00,73.9,68.1,29.95,South,181,11.0,15.0,82,0.00,,,0.24,Wunderground v.1.15,2013-06-23 03:26:00,
2013-06-22 22:30:00,73.8,68.3,29.95,South,175,11.0,11.0,83,0.00,,,0.24,Wunderground v.1.15,2013-06-23 03:30:00,
2013-06-22 22:32:00,73.7,68.2,29.95,South,188,11.0,13.0,83,0.00,,,0.24,Wunderground v.1.15,2013-06-23 03:32:00,
2013-06-22 22:34:00,73.6,68.1,29.96,South,181,10.0,13.0,83,0.00,,,0.24,Wunderground v.1.15,2013-06-23 03:34:00,
2013-06-22 22:40:00,73.5,68.4,29.95,SSE,156,8.0,8.0,84,0.00,,,0.24,Wunderground v.1.15,2013-06-23 03:40:00,
2013-06-22 22:44:00,73.4,68.3,29.96,South,187,7.0,8.0,84,0.00,,,0.24,Wunderground v.1.15,2013-06-23 03:44:00,
2013-06-22 22:46:00,73.3,68.2,29.96,SSE,150,6.0,8.0,84,0.00,,,0.24,Wunderground v.1.15,2013-06-23 03:46:00,
2013-06-22 22:48:00,73.3,68.2,29.96,SSE,158,5.0,8.0,84,0.00,,,0.24,Wunderground v.1.15,2013-06-23 03:48:00,
2013-06-22 22:52:00,73.3,68.2,29.96,SSW,211,5.0,11.0,84,0.00,,,0.24,Wunderground v.1.15,2013-06-23 03:52:00,
2013-06-22 22:54:00,73.2,68.1,29.96,South,169,6.0,11.0,84,0.00,,,0.24,Wunderground v.1.15,2013-06-23 03:54:00,
2013-06-22 22:56:00,73.1,68.0,29.96,SSE,162,6.0,11.0,84,0.00,,,0.24,Wunderground v.1.15,2013-06-23 03:56:00,
2013-06-22 22:58:00,73.1,68.0,29.96,South,188,7.0,11.0,84,0.00,,,0.24,Wunderground v.1.15,2013-06-23 03:58:00,
2013-06-22 23:00:00,73.0,67.9,29.96,South,174,7.0,10.0,84,0.00,,,0.24,Wunderground v.1.15,2013-06-23 04:00:00,
2013-06-22 23:02:00,73.0,67.9,29.96,South,180,7.0,11.0,84,0.00,,,0.24,Wunderground v.1.15,2013-06-23 04:02:00,
2013-06-22 23:04:00,73.0,67.9,29.96,South,169,8.0,11.0,84,0.00,,,0.24,Wunderground v.1.15,2013-06-23 04:04:00,
2013-06-22 23:08:00,72.9,67.8,29.96,SE,136,7.0,11.0,84,0.00,,,0.24,Wunderground v.1.15,2013-06-23 04:08:00,
2013-06-22 23:10:00,72.8,68.0,29.96,SSE,148,7.0,7.0,85,0.00,,,0.24,Wunderground v.1.15,2013-06-23 04:10:00,
2013-06-22 23:12:00,72.7,67.9,29.96,South,186,6.0,7.0,85,0.00,,,0.24,Wunderground v.1.15,2013-06-23 04:12:00,
2013-06-22 23:14:00,72.6,67.8,29.96,SE,143,6.0,7.0,85,0.00,,,0.24,Wunderground v.1.15,2013-06-23 04:14:00,
2013-06-22 23:18:00,72.6,67.8,29.97,ESE,112,5.0,8.0,85,0.00,,,0.24,Wunderground v.1.15,2013-06-23 04:18:00,
2013-06-22 23:20:00,72.5,67.7,29.97,SSE,153,6.0,6.0,85,0.00,,,0.24,Wunderground v.1.15,2013-06-23 04:20:00,
2013-06-22 23:22:00,72.5,67.7,29.97,SSW,198,6.0,7.0,85,0.00,,,0.24,Wunderground v.1.15,2013-06-23 04:22:00,
2013-06-22 23:26:00,72.5,67.4,29.97,SSE,160,6.0,11.0,84,0.00,,,0.24,Wunderground v.1.15,2013-06-23 04:26:00,
2013-06-22 23:28:00,72.6,67.5,29.97,SSW,195,7.0,11.0,84,0.00,,,0.24,Wunderground v.1.15,2013-06-23 04:28:00,
2013-06-22 23:32:00,72.6,67.5,29.97,SSW,193,8.0,10.0,84,0.00,,,0.24,Wunderground v.1.15,2013-06-23 04:32:00,
2013-06-22 23:36:00,72.5,67.4,29.98,SSW,204,8.0,10.0,84,0.00,,,0.24,Wunderground v.1.15,2013-06-23 04:36:00,
2013-06-22 23:38:00,72.5,67.4,29.97,SSW,208,7.0,10.0,84,0.00,,,0.24,Wunderground v.1.15,2013-06-23 04:38:00,
2013-06-22 23:40:00,72.4,67.3,29.98,SSW,197,7.0,7.0,84,0.00,,,0.24,Wunderground v.1.15,2013-06-23 04:40:00,
2013-06-22 23:42:00,72.3,67.2,29.98,WSW,243,7.0,7.0,84,0.00,,,0.24,Wunderground v.1.15,2013-06-23 04:42:00,
2013-06-22 23:44:00,72.2,67.4,29.98,SSW,200,5.0,7.0,85,0.00,,,0.24,Wunderground v.1.15,2013-06-23 04:44:00,
2013-06-22 23:46:00,72.0,67.2,29.98,WSW,246,4.0,7.0,85,0.00,,,0.24,Wunderground v.1.15,2013-06-23 04:46:00,
2013-06-22 23:50:00,71.7,67.3,29.98,SW,231,3.0,3.0,86,0.00,,,0.24,Wunderground v.1.15,2013-06-23 04:50:00,
2013-06-22 23:52:00,71.6,67.2,29.97,SSW,197,3.0,5.0,86,0.00,,,0.24,Wunderground v.1.15,2013-06-23 04:52:00,
2013-06-22 23:54:00,71.5,67.1,29.97,SSW,197,3.0,7.0,86,0.00,,,0.24,Wunderground v.1.15,2013-06-23 04:54:00,
2013-06-22 23:56:00,71.4,67.0,29.97,SSW,200,4.0,7.0,86,0.00,,,0.24,Wunderground v.1.15,2013-06-23 04:56:00,
2013-06-22 23:58:00,71.3,66.9,29.97,South,177,5.0,7.0,86,0.00,,,0.00,Wunderground v.1.15,2013-06-23 04:58:00,